Terminal Aerodrome Forecast
Issued by NWS

Home | Current Version | Previous Version | Text Only | Print | Product List | Glossary On
Versions: 1 2 3 4 5 6 7 8 9 10 11 12 13 14 15 16 17 18 19 20 21 22 23 24 25 26
000
FTUS43 KABR 300900 AAA
TAFPIR
TAF AMD
KPIR 300933Z 3010/0106 11019G25KT P6SM -RA BKN010 OVC060
     FM301700 16025G35KT P6SM VCTS OVC035CB
     FM302200 22018G28KT P6SM OVC050=

USA.gov is the U.S. government's official web portal to all federal, state and local government web resources and services.